Time;durP1;ratioP1;P1;durP2;ratioP2;P2;SDS_P1;SDS_P2;PMS_P1;PMS_P2;Temp;Humidity;BMP_temperature;BMP_pressure;BME280_temperature;BME280_humidity;BME280_pressure;Samples;Min_cycle;Max_cycle;Signal;HPM_P1;HPM_P2
2021/07/02 00:00:32;;;;;;;74.83;53.97;;;;;;;;;;4996417;28;20422;-90
2021/07/02 00:03:00;;;;;;;70.60;52.80;;;;;;;;;;4996363;28;20455;-90
2021/07/02 00:05:29;;;;;;;86.87;53.90;;;;;;;;;;4995697;28;21021;-90
2021/07/02 00:07:56;;;;;;;76.30;52.90;;;;;;;;;;4996334;28;20844;-90
2021/07/02 00:10:24;;;;;;;66.93;52.97;;;;;;;;;;4996042;28;20546;-90
2021/07/02 00:12:52;;;;;;;81.10;55.03;;;;;;;;;;4995958;28;20435;-91
2021/07/02 00:15:19;;;;;;;80.00;52.00;;;;;;;;;;4996264;28;20449;-90
2021/07/02 00:17:47;;;;;;;65.43;51.13;;;;;;;;;;4978998;28;20431;-90
2021/07/02 00:20:15;;;;;;;74.73;53.30;;;;;;;;;;4995985;28;20438;-90
2021/07/02 00:22:44;;;;;;;67.60;49.77;;;;;;;;;;4996133;28;20445;-90
2021/07/02 00:25:11;;;;;;;75.57;49.77;;;;;;;;;;4995619;28;20930;-90
2021/07/02 00:27:39;;;;;;;61.50;49.40;;;;;;;;;;4996012;28;20421;-90
2021/07/02 00:30:07;;;;;;;67.57;49.27;;;;;;;;;;4995549;28;20506;-90
2021/07/02 00:32:35;;;;;;;61.87;49.30;;;;;;;;;;4996647;28;20436;-90
2021/07/02 00:35:02;;;;;;;76.63;51.30;;;;;;;;;;4995922;28;20442;-90
2021/07/02 00:37:29;;;;;;;61.60;48.80;;;;;;;;;;4995435;28;20416;-90
2021/07/02 00:39:58;;;;;;;73.33;49.53;;;;;;;;;;4995888;28;20457;-90
2021/07/02 00:42:26;;;;;;;81.97;49.83;;;;;;;;;;4978598;28;20420;-90
2021/07/02 00:44:53;;;;;;;65.60;50.90;;;;;;;;;;4978425;28;20464;-90
2021/07/02 00:47:21;;;;;;;64.90;49.73;;;;;;;;;;4996367;28;20496;-91
2021/07/02 00:49:48;;;;;;;85.03;49.30;;;;;;;;;;4995097;28;20465;-90
2021/07/02 00:52:16;;;;;;;70.17;51.37;;;;;;;;;;4994908;28;20467;-90
2021/07/02 00:54:45;;;;;;;72.97;51.87;;;;;;;;;;4995284;28;20481;-90
2021/07/02 00:57:15;;;;;;;74.00;50.13;;;;;;;;;;4995457;28;20454;-91
2021/07/02 00:59:42;;;;;;;66.53;49.60;;;;;;;;;;4996026;28;20480;-90
2021/07/02 01:02:10;;;;;;;71.23;49.50;;;;;;;;;;4995876;28;20868;-91
2021/07/02 01:04:37;;;;;;;62.83;45.73;;;;;;;;;;4995187;28;20473;-91
2021/07/02 01:07:05;;;;;;;66.13;49.97;;;;;;;;;;4994999;28;20438;-91
2021/07/02 01:09:32;;;;;;;67.50;54.30;;;;;;;;;;4995259;28;20412;-91
2021/07/02 01:12:00;;;;;;;58.87;47.90;;;;;;;;;;4994966;28;20477;-91
2021/07/02 01:14:29;;;;;;;66.90;48.87;;;;;;;;;;4995883;28;20746;-90
2021/07/02 01:16:58;;;;;;;57.60;47.97;;;;;;;;;;4977967;28;20469;-90
2021/07/02 01:19:25;;;;;;;60.63;47.10;;;;;;;;;;4995181;28;20416;-91
2021/07/02 01:21:55;;;;;;;60.10;46.87;;;;;;;;;;4995374;28;20916;-91
2021/07/02 01:24:22;;;;;;;60.90;46.67;;;;;;;;;;4994930;28;20431;-90
2021/07/02 01:26:50;;;;;;;60.10;44.33;;;;;;;;;;4994695;28;20907;-91
2021/07/02 01:29:18;;;;;;;66.40;45.77;;;;;;;;;;4995056;28;20437;-91
2021/07/02 01:31:45;;;;;;;64.80;45.80;;;;;;;;;;4994639;28;20463;-91
2021/07/02 01:34:13;;;;;;;72.53;49.87;;;;;;;;;;4994809;28;20947;-90
2021/07/02 01:36:40;;;;;;;65.30;47.33;;;;;;;;;;4994789;28;20404;-91
2021/07/02 01:39:09;;;;;;;58.10;47.57;;;;;;;;;;4994766;28;20882;-91
2021/07/02 01:41:37;;;;;;;62.93;47.23;;;;;;;;;;4994792;28;20446;-90
2021/07/02 01:44:05;;;;;;;53.07;46.00;;;;;;;;;;4994541;28;20453;-90
2021/07/02 01:46:32;;;;;;;55.47;47.50;;;;;;;;;;4994970;28;20408;-90
2021/07/02 01:48:59;;;;;;;63.33;46.23;;;;;;;;;;4977868;28;20458;-91
2021/07/02 01:51:27;;;;;;;66.17;46.83;;;;;;;;;;4994864;28;20847;-91
2021/07/02 01:53:54;;;;;;;59.83;48.37;;;;;;;;;;4994531;28;20431;-90
2021/07/02 01:56:23;;;;;;;64.23;50.87;;;;;;;;;;4994819;28;20794;-90
2021/07/02 01:58:51;;;;;;;68.97;51.27;;;;;;;;;;4994929;28;20437;-90
2021/07/02 02:01:18;;;;;;;70.10;49.63;;;;;;;;;;4994786;28;20446;-90
2021/07/02 02:03:47;;;;;;;56.70;50.27;;;;;;;;;;4998463;28;20426;-90
2021/07/02 02:06:14;;;;;;;58.03;51.60;;;;;;;;;;4998139;28;20490;-91
2021/07/02 02:08:42;;;;;;;67.47;49.93;;;;;;;;;;4998632;28;20504;-91
2021/07/02 02:11:09;;;;;;;62.13;50.13;;;;;;;;;;4998146;28;20484;-91
2021/07/02 02:13:38;;;;;;;67.83;50.97;;;;;;;;;;4998583;28;20433;-91
2021/07/02 02:16:06;;;;;;;58.73;47.37;;;;;;;;;;4998400;28;20971;-91
2021/07/02 02:18:33;;;;;;;57.90;47.40;;;;;;;;;;4998468;28;20580;-91
2021/07/02 02:21:01;;;;;;;64.23;49.23;;;;;;;;;;4980994;28;20504;-90
2021/07/02 02:23:28;;;;;;;66.73;48.20;;;;;;;;;;4998259;28;20450;-90
2021/07/02 02:25:55;;;;;;;64.30;46.23;;;;;;;;;;4997961;28;20872;-90
2021/07/02 02:28:23;;;;;;;65.77;49.60;;;;;;;;;;4998278;28;20513;-91
2021/07/02 02:30:52;;;;;;;67.90;48.83;;;;;;;;;;4997836;28;20448;-91
2021/07/02 02:33:19;;;;;;;60.10;47.63;;;;;;;;;;4997812;28;20441;-90
2021/07/02 02:35:47;;;;;;;62.73;47.83;;;;;;;;;;4997807;28;20435;-90
2021/07/02 02:38:14;;;;;;;68.20;50.23;;;;;;;;;;4997939;28;20442;-90
2021/07/02 02:40:41;;;;;;;62.73;47.20;;;;;;;;;;4998167;28;20460;-90
2021/07/02 02:43:09;;;;;;;73.63;51.27;;;;;;;;;;4998216;28;20451;-90
2021/07/02 02:45:36;;;;;;;61.80;46.10;;;;;;;;;;4997843;28;20493;-91
2021/07/02 02:48:05;;;;;;;65.17;49.60;;;;;;;;;;4998237;28;20464;-90
2021/07/02 02:50:33;;;;;;;69.40;49.00;;;;;;;;;;4997824;28;20452;-90
2021/07/02 02:53:00;;;;;;;59.53;49.10;;;;;;;;;;4997857;28;20455;-91
2021/07/02 02:55:28;;;;;;;66.33;48.87;;;;;;;;;;4997718;28;20445;-90
2021/07/02 02:57:55;;;;;;;61.00;49.57;;;;;;;;;;4997741;28;20893;-92
2021/07/02 03:00:22;;;;;;;72.90;49.20;;;;;;;;;;4997762;28;20439;-90
2021/07/02 03:02:50;;;;;;;61.40;47.37;;;;;;;;;;4997471;28;20871;-91
2021/07/02 03:05:19;;;;;;;53.87;47.73;;;;;;;;;;4997504;28;20511;-91
2021/07/02 03:07:46;;;;;;;64.00;50.37;;;;;;;;;;4997429;28;20427;-91
2021/07/02 03:10:14;;;;;;;70.47;51.87;;;;;;;;;;4997618;28;20430;-91
2021/07/02 03:12:41;;;;;;;62.10;50.70;;;;;;;;;;4997247;28;20485;-90
2021/07/02 03:15:09;;;;;;;62.20;50.63;;;;;;;;;;4996461;28;20404;-91
2021/07/02 03:17:36;;;;;;;64.60;50.50;;;;;;;;;;4997741;28;20432;-90
2021/07/02 03:20:04;;;;;;;83.10;53.03;;;;;;;;;;4997535;28;20461;-91
2021/07/02 03:22:33;;;;;;;65.40;49.37;;;;;;;;;;4997720;28;20461;-90
2021/07/02 03:25:00;;;;;;;63.83;48.97;;;;;;;;;;4997443;28;20452;-91
2021/07/02 03:27:27;;;;;;;75.27;52.70;;;;;;;;;;4996797;28;20426;-91
2021/07/02 03:29:55;;;;;;;64.57;49.00;;;;;;;;;;4997111;28;20458;-91
2021/07/02 03:32:22;;;;;;;66.93;52.50;;;;;;;;;;4996652;28;20511;-91
2021/07/02 03:34:49;;;;;;;66.00;49.37;;;;;;;;;;4996938;28;20437;-91
2021/07/02 03:37:17;;;;;;;57.63;47.07;;;;;;;;;;4997734;28;20922;-91
2021/07/02 03:39:46;;;;;;;72.83;51.03;;;;;;;;;;4997060;28;20429;-91
2021/07/02 03:42:14;;;;;;;61.23;49.03;;;;;;;;;;4996934;28;20448;-91
2021/07/02 03:44:41;;;;;;;55.03;48.80;;;;;;;;;;4997718;28;20444;-91
2021/07/02 03:47:11;;;;;;;64.40;51.23;;;;;;;;;;4997751;28;20445;-91
2021/07/02 03:49:38;;;;;;;68.03;49.40;;;;;;;;;;4996818;28;20433;-91
2021/07/02 03:52:06;;;;;;;66.50;50.20;;;;;;;;;;4996726;28;20485;-91
2021/07/02 03:54:33;;;;;;;63.37;47.07;;;;;;;;;;4996855;28;20517;-91
2021/07/02 03:57:18;;;;;;;66.90;48.10;;;;;;;;;;4996258;28;20900;-90
2021/07/02 03:59:46;;;;;;;61.87;45.80;;;;;;;;;;4996434;28;20789;-84
2021/07/02 04:02:14;;;;;;;59.20;48.10;;;;;;;;;;4995978;28;20400;-84
2021/07/02 04:04:42;;;;;;;64.77;49.97;;;;;;;;;;4995860;28;20488;-84
2021/07/02 04:07:10;;;;;;;59.37;47.03;;;;;;;;;;4996384;28;20420;-84
2021/07/02 04:09:38;;;;;;;55.77;46.27;;;;;;;;;;4996005;28;20428;-84
2021/07/02 04:12:07;;;;;;;57.50;46.37;;;;;;;;;;4995758;28;20474;-84
2021/07/02 04:14:35;;;;;;;67.73;47.30;;;;;;;;;;4995827;28;20429;-84
2021/07/02 04:17:02;;;;;;;63.90;44.53;;;;;;;;;;4995725;28;20513;-85
2021/07/02 04:19:29;;;;;;;56.63;45.00;;;;;;;;;;4995660;28;20453;-84
2021/07/02 04:21:56;;;;;;;55.13;45.07;;;;;;;;;;4996399;28;20858;-85
2021/07/02 04:24:26;;;;;;;51.47;46.03;;;;;;;;;;4995521;28;20442;-84
2021/07/02 04:26:55;;;;;;;57.10;46.87;;;;;;;;;;4995540;28;20446;-84
2021/07/02 04:29:23;;;;;;;60.43;47.20;;;;;;;;;;4995614;28;20413;-84
2021/07/02 04:31:51;;;;;;;51.93;44.17;;;;;;;;;;4995314;28;20469;-85
2021/07/02 04:34:18;;;;;;;59.50;47.20;;;;;;;;;;4995383;28;20464;-85
2021/07/02 04:36:46;;;;;;;52.60;44.37;;;;;;;;;;4995281;28;20450;-85
2021/07/02 04:39:13;;;;;;;62.43;46.10;;;;;;;;;;4995302;28;20902;-85
2021/07/02 04:41:40;;;;;;;58.37;46.60;;;;;;;;;;4995215;28;20435;-84
2021/07/02 04:44:08;;;;;;;56.10;47.80;;;;;;;;;;4995241;28;20461;-84
2021/07/02 04:46:37;;;;;;;49.00;43.93;;;;;;;;;;4995876;28;20507;-85
2021/07/02 04:49:05;;;;;;;55.80;45.13;;;;;;;;;;4978006;28;20845;-85
2021/07/02 04:51:32;;;;;;;66.47;51.40;;;;;;;;;;4978472;28;20416;-86
2021/07/02 04:54:00;;;;;;;58.57;47.40;;;;;;;;;;4995124;28;20420;-88
2021/07/02 04:56:27;;;;;;;56.43;47.77;;;;;;;;;;4994992;28;20424;-84
2021/07/02 04:58:56;;;;;;;52.97;44.73;;;;;;;;;;4995448;28;20776;-88
2021/07/02 05:01:23;;;;;;;62.27;49.50;;;;;;;;;;4994998;28;20487;-86
2021/07/02 05:03:52;;;;;;;61.07;49.57;;;;;;;;;;4995005;28;20457;-86
2021/07/02 05:06:20;;;;;;;52.77;46.20;;;;;;;;;;4995319;28;20457;-87
2021/07/02 05:08:47;;;;;;;59.47;46.87;;;;;;;;;;4995604;28;20428;-86
2021/07/02 05:11:15;;;;;;;50.33;45.10;;;;;;;;;;4995097;28;20427;-86
2021/07/02 05:13:43;;;;;;;57.43;44.70;;;;;;;;;;4994722;28;20485;-86
2021/07/02 05:16:11;;;;;;;52.13;46.07;;;;;;;;;;4978108;28;20544;-85
2021/07/02 05:18:38;;;;;;;62.53;46.90;;;;;;;;;;4995169;28;20453;-85
2021/07/02 05:21:07;;;;;;;51.53;44.30;;;;;;;;;;4994340;28;20433;-85
2021/07/02 05:23:35;;;;;;;61.43;45.80;;;;;;;;;;4994630;28;20457;-85
2021/07/02 05:26:03;;;;;;;57.40;47.80;;;;;;;;;;4994771;28;20458;-86
2021/07/02 05:28:30;;;;;;;60.37;46.10;;;;;;;;;;4995118;28;20483;-84
2021/07/02 05:30:57;;;;;;;52.20;46.63;;;;;;;;;;4994453;28;20434;-84
2021/07/02 05:33:25;;;;;;;50.23;45.00;;;;;;;;;;4994734;28;20842;-86
2021/07/02 05:35:52;;;;;;;56.47;48.00;;;;;;;;;;4994741;28;20771;-85
2021/07/02 05:38:21;;;;;;;54.97;49.07;;;;;;;;;;4994164;28;20446;-86
2021/07/02 05:40:50;;;;;;;56.50;47.00;;;;;;;;;;4994636;28;20443;-83
2021/07/02 05:43:17;;;;;;;59.60;47.00;;;;;;;;;;4994594;28;20857;-84
2021/07/02 05:45:45;;;;;;;57.57;47.17;;;;;;;;;;4994635;28;20475;-84
2021/07/02 05:48:16;;;;;;;56.13;46.13;;;;;;;;;;4994514;28;20472;-85
2021/07/02 05:50:43;;;;;;;56.80;47.23;;;;;;;;;;4994389;28;20441;-85
2021/07/02 05:53:11;;;;;;;60.07;46.97;;;;;;;;;;4994182;28;20478;-85
2021/07/02 05:55:40;;;;;;;59.87;48.50;;;;;;;;;;4994132;28;20429;-84
2021/07/02 05:58:07;;;;;;;60.10;46.60;;;;;;;;;;4994154;28;20437;-84
2021/07/02 06:00:34;;;;;;;60.50;47.73;;;;;;;;;;4994332;28;20820;-84
2021/07/02 06:03:02;;;;;;;57.20;49.37;;;;;;;;;;4994325;28;20441;-84
2021/07/02 06:05:30;;;;;;;63.33;47.00;;;;;;;;;;4993873;28;20477;-84
2021/07/02 06:07:58;;;;;;;62.70;48.90;;;;;;;;;;4994212;28;20485;-84
2021/07/02 06:10:26;;;;;;;52.83;45.17;;;;;;;;;;4994262;28;20975;-83
2021/07/02 06:12:55;;;;;;;52.23;44.63;;;;;;;;;;4994145;28;20456;-84
2021/07/02 06:15:23;;;;;;;53.23;45.87;;;;;;;;;;4994426;28;20868;-84
2021/07/02 06:17:52;;;;;;;49.50;43.73;;;;;;;;;;4994523;28;20770;-87
2021/07/02 06:20:22;;;;;;;56.23;45.70;;;;;;;;;;4993872;28;20508;-83
2021/07/02 06:22:49;;;;;;;54.33;45.93;;;;;;;;;;4993831;28;20523;-83
2021/07/02 06:25:16;;;;;;;52.37;43.63;;;;;;;;;;4993757;28;20419;-84
2021/07/02 06:27:44;;;;;;;51.40;45.43;;;;;;;;;;4993872;28;20432;-83
2021/07/02 06:30:13;;;;;;;50.40;44.10;;;;;;;;;;4993733;28;20463;-83
2021/07/02 06:32:41;;;;;;;52.23;46.63;;;;;;;;;;4994025;28;20451;-83
2021/07/02 06:35:08;;;;;;;52.83;44.37;;;;;;;;;;4994265;28;20432;-83
2021/07/02 06:37:36;;;;;;;53.30;44.37;;;;;;;;;;4994015;28;20540;-84
2021/07/02 06:40:04;;;;;;;49.63;42.50;;;;;;;;;;4993885;28;20441;-84
2021/07/02 06:42:31;;;;;;;49.17;44.27;;;;;;;;;;4993830;28;20436;-86
2021/07/02 06:44:59;;;;;;;49.90;44.70;;;;;;;;;;4993485;28;20475;-81
2021/07/02 06:47:28;;;;;;;49.63;44.33;;;;;;;;;;4993826;28;20441;-83
2021/07/02 06:49:55;;;;;;;50.37;45.17;;;;;;;;;;4995953;28;20422;-83
2021/07/02 06:52:22;;;;;;;50.20;45.10;;;;;;;;;;4997043;28;20473;-82
2021/07/02 06:54:50;;;;;;;53.37;47.83;;;;;;;;;;4996994;28;20451;-84
2021/07/02 06:57:17;;;;;;;48.10;43.40;;;;;;;;;;4996895;28;20426;-84
2021/07/02 06:59:45;;;;;;;50.07;45.10;;;;;;;;;;4997242;28;20447;-83
2021/07/02 07:02:13;;;;;;;49.67;44.37;;;;;;;;;;4997089;28;20493;-84
2021/07/02 07:04:42;;;;;;;55.77;45.87;;;;;;;;;;4997032;28;20485;-83
2021/07/02 07:07:11;;;;;;;51.97;46.80;;;;;;;;;;4979825;28;20450;-83
2021/07/02 07:09:38;;;;;;;50.37;45.27;;;;;;;;;;4996765;28;20438;-83
2021/07/02 07:12:06;;;;;;;50.97;45.73;;;;;;;;;;4997107;28;20417;-83
2021/07/02 07:14:34;;;;;;;50.77;45.40;;;;;;;;;;4996750;28;20481;-84
2021/07/02 07:17:04;;;;;;;55.90;46.37;;;;;;;;;;4996788;28;20465;-84
2021/07/02 07:19:31;;;;;;;53.53;45.23;;;;;;;;;;4996908;28;20458;-84
2021/07/02 07:22:00;;;;;;;53.63;48.07;;;;;;;;;;4996617;28;20445;-83
2021/07/02 07:24:27;;;;;;;50.90;45.83;;;;;;;;;;4996603;28;20955;-83
2021/07/02 07:26:55;;;;;;;50.30;44.97;;;;;;;;;;4996757;28;20429;-84
2021/07/02 07:29:22;;;;;;;56.00;47.77;;;;;;;;;;4996570;28;20446;-83
2021/07/02 07:31:49;;;;;;;51.13;46.37;;;;;;;;;;4996419;28;20453;-84
2021/07/02 07:34:25;;;;;;;50.10;44.87;;;;;;;;;;4996264;28;20497;-84
2021/07/02 07:36:55;;;;;;;56.20;47.47;;;;;;;;;;4996427;28;20461;-84
2021/07/02 07:39:24;;;;;;;51.37;46.00;;;;;;;;;;4996177;28;20481;-83
2021/07/02 07:41:51;;;;;;;52.67;47.33;;;;;;;;;;4996343;28;20510;-83
2021/07/02 07:44:18;;;;;;;52.83;47.57;;;;;;;;;;4996313;28;20463;-83
2021/07/02 07:46:46;;;;;;;53.40;47.57;;;;;;;;;;4996314;28;20436;-84
2021/07/02 07:49:13;;;;;;;52.30;47.27;;;;;;;;;;4996012;28;20448;-84
2021/07/02 07:51:46;;;;;;;48.33;43.83;;;;;;;;;;4996244;28;20461;-84
2021/07/02 07:54:13;;;;;;;49.33;44.70;;;;;;;;;;4995886;28;20480;-84
2021/07/02 07:56:50;;;;;;;46.43;41.47;;;;;;;;;;4995764;28;20917;-84
2021/07/02 07:59:18;;;;;;;45.77;41.50;;;;;;;;;;4996057;28;20849;-84
2021/07/02 08:01:45;;;;;;;47.03;42.47;;;;;;;;;;4995486;28;20467;-84
2021/07/02 08:04:14;;;;;;;46.63;41.67;;;;;;;;;;4995625;28;20453;-83
2021/07/02 08:06:42;;;;;;;48.10;43.87;;;;;;;;;;4995855;28;20466;-84
2021/07/02 08:09:09;;;;;;;47.97;43.47;;;;;;;;;;4995957;28;20444;-83
2021/07/02 08:11:37;;;;;;;48.57;44.10;;;;;;;;;;4978474;28;20451;-82
2021/07/02 08:14:06;;;;;;;47.20;42.60;;;;;;;;;;4995320;28;21076;-84
2021/07/02 08:16:33;;;;;;;49.40;44.60;;;;;;;;;;4995691;28;20434;-84
2021/07/02 08:19:01;;;;;;;45.37;40.67;;;;;;;;;;4995702;28;20440;-83
2021/07/02 08:21:28;;;;;;;46.20;41.20;;;;;;;;;;4995668;28;20454;-83
2021/07/02 08:23:56;;;;;;;47.10;42.60;;;;;;;;;;4995425;28;20441;-83
2021/07/02 08:26:25;;;;;;;47.50;42.17;;;;;;;;;;4995354;28;20437;-84
2021/07/02 08:31:38;;;;;;;49.30;44.63;;;;;;;;;;4995464;28;20938;-84
2021/07/02 08:34:06;;;;;;;47.57;42.53;;;;;;;;;;4995113;28;20493;-80
2021/07/02 08:36:33;;;;;;;49.17;43.90;;;;;;;;;;4995224;28;20442;-81
2021/07/02 08:39:00;;;;;;;49.70;45.10;;;;;;;;;;4994946;28;20923;-81
2021/07/02 08:41:28;;;;;;;51.60;43.90;;;;;;;;;;4995355;28;20448;-83
2021/07/02 08:43:55;;;;;;;47.83;43.20;;;;;;;;;;4994999;28;20453;-82
2021/07/02 08:46:23;;;;;;;54.77;44.40;;;;;;;;;;4994952;28;20439;-83
2021/07/02 08:48:52;;;;;;;47.47;43.17;;;;;;;;;;4994962;28;20444;-83
2021/07/02 08:51:20;;;;;;;50.63;45.30;;;;;;;;;;4994918;28;20410;-83
2021/07/02 08:53:47;;;;;;;46.27;41.80;;;;;;;;;;4994863;28;20469;-83
2021/07/02 08:56:15;;;;;;;45.10;40.40;;;;;;;;;;4994967;28;20814;-84
2021/07/02 08:58:44;;;;;;;44.77;40.47;;;;;;;;;;4994806;28;20433;-83
2021/07/02 09:01:31;;;;;;;42.97;38.87;;;;;;;;;;4994764;28;20443;-84
2021/07/02 09:04:15;;;;;;;44.20;40.03;;;;;;;;;;4994362;28;20741;-84
2021/07/02 09:06:42;;;;;;;39.83;36.43;;;;;;;;;;4994764;28;20438;-84
2021/07/02 09:09:10;;;;;;;42.50;38.30;;;;;;;;;;4994666;28;20427;-83
2021/07/02 09:11:38;;;;;;;40.70;37.17;;;;;;;;;;4994130;28;20444;-83
2021/07/02 09:14:08;;;;;;;40.60;36.90;;;;;;;;;;4994580;28;20473;-83
2021/07/02 09:16:37;;;;;;;41.27;37.50;;;;;;;;;;4994509;28;20937;-83
2021/07/02 09:22:13;;;;;;;38.40;34.90;;;;;;;;;;5097059;27;1617070;-84
2021/07/02 09:24:43;;;;;;;40.40;36.73;;;;;;;;;;5132057;28;20550;-84
2021/07/02 09:27:24;;;;;;;40.40;36.87;;;;;;;;;;5131705;28;20514;-83
2021/07/02 09:30:02;;;;;;;35.87;32.83;;;;;;;;;;5132299;28;20485;-84
2021/07/02 09:32:30;;;;;;;35.27;32.67;;;;;;;;;;5132227;28;20441;-84
2021/07/02 09:34:59;;;;;;;32.87;30.00;;;;;;;;;;5132235;28;20413;-84
2021/07/02 09:37:32;;;;;;;36.20;33.30;;;;;;;;;;5113841;28;20492;-84
2021/07/02 09:40:09;;;;;;;37.70;34.07;;;;;;;;;;5132386;28;20534;-84
2021/07/02 09:42:37;;;;;;;37.73;34.40;;;;;;;;;;5131809;28;20784;-83
2021/07/02 09:45:06;;;;;;;37.80;34.70;;;;;;;;;;5130803;28;20789;-83
2021/07/02 09:47:33;;;;;;;39.23;35.50;;;;;;;;;;5130661;28;20436;-84
2021/07/02 09:50:28;;;;;;;38.87;35.17;;;;;;;;;;5131739;28;20412;-84
2021/07/02 09:52:58;;;;;;;37.23;34.23;;;;;;;;;;5047669;28;20462;-83
2021/07/02 09:55:27;;;;;;;39.37;35.73;;;;;;;;;;5048726;28;20442;-83
2021/07/02 09:58:08;;;;;;;41.00;37.60;;;;;;;;;;5048420;28;20445;-82
2021/07/02 10:00:36;;;;;;;40.37;36.57;;;;;;;;;;5048221;28;20510;-83
2021/07/02 10:03:06;;;;;;;41.23;37.43;;;;;;;;;;5048550;28;20455;-83
2021/07/02 10:05:44;;;;;;;41.93;38.63;;;;;;;;;;5048413;28;20966;-83
2021/07/02 10:08:13;;;;;;;43.97;40.03;;;;;;;;;;5048399;28;20845;-84
2021/07/02 10:10:41;;;;;;;43.93;40.20;;;;;;;;;;5048213;28;20444;-83
2021/07/02 10:13:08;;;;;;;40.23;37.03;;;;;;;;;;5048170;28;20440;-84
2021/07/02 10:15:36;;;;;;;35.90;33.10;;;;;;;;;;5048720;28;20952;-84
2021/07/02 10:18:03;;;;;;;33.43;30.73;;;;;;;;;;5050053;28;20504;-83
2021/07/02 10:20:32;;;;;;;33.80;31.10;;;;;;;;;;5050324;28;20578;-84
2021/07/02 10:23:04;;;;;;;32.30;29.50;;;;;;;;;;5048096;28;20530;-84
2021/07/02 10:25:35;;;;;;;33.90;31.40;;;;;;;;;;5048861;28;20432;-83
2021/07/02 10:28:02;;;;;;;32.13;29.83;;;;;;;;;;5067172;28;20440;-84
2021/07/02 10:30:30;;;;;;;32.93;30.23;;;;;;;;;;5130002;28;20436;-83
2021/07/02 10:32:59;;;;;;;32.30;29.80;;;;;;;;;;5120565;28;20447;-84
2021/07/02 10:35:28;;;;;;;31.53;29.07;;;;;;;;;;5117357;28;20446;-90
2021/07/02 10:37:57;;;;;;;30.03;27.97;;;;;;;;;;5116977;28;20423;-84
2021/07/02 10:40:32;;;;;;;31.40;28.70;;;;;;;;;;5117173;28;20476;-84
2021/07/02 10:43:11;;;;;;;32.23;29.77;;;;;;;;;;5117011;28;20428;-84
2021/07/02 10:45:38;;;;;;;32.00;29.70;;;;;;;;;;5117057;28;20528;-85
2021/07/02 10:48:06;;;;;;;32.40;29.90;;;;;;;;;;5116793;28;20407;-84
2021/07/02 10:50:42;;;;;;;32.37;29.87;;;;;;;;;;5116704;28;20456;-84
2021/07/02 10:53:30;;;;;;;32.77;30.27;;;;;;;;;;5117539;28;20445;-85
2021/07/02 10:55:58;;;;;;;33.83;31.23;;;;;;;;;;5110687;28;20515;-85
2021/07/02 10:58:46;;;;;;;35.40;32.80;;;;;;;;;;5116638;28;20813;-84
2021/07/02 11:01:14;;;;;;;34.57;31.90;;;;;;;;;;5116463;28;20486;-85
2021/07/02 11:03:41;;;;;;;34.27;31.50;;;;;;;;;;5098793;28;20898;-84
2021/07/02 11:06:24;;;;;;;34.93;32.27;;;;;;;;;;5117265;28;20434;-84
2021/07/02 11:08:51;;;;;;;34.40;31.87;;;;;;;;;;5100266;28;20513;-84
2021/07/02 11:11:19;;;;;;;35.50;32.70;;;;;;;;;;5116681;28;20433;-85
2021/07/02 11:14:04;;;;;;;36.40;33.40;;;;;;;;;;5116812;28;20813;-85
2021/07/02 11:16:33;;;;;;;35.37;32.77;;;;;;;;;;5116720;28;20516;-85
2021/07/02 11:19:24;;;;;;;34.53;32.00;;;;;;;;;;5116565;28;20437;-87
2021/07/02 11:22:06;;;;;;;34.60;32.30;;;;;;;;;;5115860;28;20567;-84
2021/07/02 11:24:58;;;;;;;34.07;31.23;;;;;;;;;;5115414;28;20416;-84
2021/07/02 11:27:34;;;;;;;36.20;33.17;;;;;;;;;;5078552;28;20448;-83
2021/07/02 11:30:07;;;;;;;34.23;31.57;;;;;;;;;;5098695;28;20754;-84
2021/07/02 11:32:36;;;;;;;36.30;33.60;;;;;;;;;;5115885;28;20445;-84
2021/07/02 11:35:28;;;;;;;33.67;31.03;;;;;;;;;;5116023;28;20444;-84
2021/07/02 11:38:03;;;;;;;34.77;32.10;;;;;;;;;;5101221;28;20569;-84
2021/07/02 11:40:31;;;;;;;35.60;32.33;;;;;;;;;;5116480;28;20813;-84
2021/07/02 11:42:59;;;;;;;35.70;32.80;;;;;;;;;;5115302;28;20449;-84
2021/07/02 11:45:39;;;;;;;34.87;31.87;;;;;;;;;;5115305;28;20508;-84
2021/07/02 11:48:08;;;;;;;32.17;29.77;;;;;;;;;;5115519;28;20462;-84
2021/07/02 11:50:39;;;;;;;34.70;32.20;;;;;;;;;;5115846;28;20423;-84
2021/07/02 11:53:06;;;;;;;34.93;32.30;;;;;;;;;;5116014;28;20435;-84
2021/07/02 11:55:34;;;;;;;34.33;31.83;;;;;;;;;;5115931;28;20522;-85
2021/07/02 11:58:14;;;;;;;33.77;31.37;;;;;;;;;;5115552;28;20512;-86
2021/07/02 12:00:41;;;;;;;32.60;30.40;;;;;;;;;;5115890;28;20808;-85
2021/07/02 12:03:11;;;;;;;34.53;31.80;;;;;;;;;;5115511;28;20457;-85
2021/07/02 12:05:38;;;;;;;34.33;31.73;;;;;;;;;;5115666;28;20467;-85
2021/07/02 12:08:06;;;;;;;34.77;32.17;;;;;;;;;;5115682;28;20766;-85
2021/07/02 12:10:33;;;;;;;34.00;31.30;;;;;;;;;;5115652;28;20412;-85
2021/07/02 12:13:07;;;;;;;35.20;32.47;;;;;;;;;;5115402;28;20481;-85
2021/07/02 12:15:35;;;;;;;34.10;31.40;;;;;;;;;;5115327;28;20429;-85
2021/07/02 12:18:04;;;;;;;34.63;31.93;;;;;;;;;;5097425;28;20497;-86
2021/07/02 12:20:33;;;;;;;33.30;30.80;;;;;;;;;;5114940;28;21008;-85
2021/07/02 12:23:07;;;;;;;33.00;30.30;;;;;;;;;;5115129;28;20449;-85
2021/07/02 12:25:34;;;;;;;32.47;30.10;;;;;;;;;;5097257;28;20451;-85
2021/07/02 12:28:02;;;;;;;33.13;30.77;;;;;;;;;;5115360;28;20772;-85
2021/07/02 12:30:29;;;;;;;34.33;31.57;;;;;;;;;;5097668;28;20946;-85
2021/07/02 12:32:57;;;;;;;31.97;29.73;;;;;;;;;;5115272;28;20409;-86
2021/07/02 12:35:24;;;;;;;34.03;31.30;;;;;;;;;;5115069;28;20434;-86
2021/07/02 12:37:53;;;;;;;33.93;31.53;;;;;;;;;;5114843;28;20894;-85
2021/07/02 12:40:21;;;;;;;32.17;29.87;;;;;;;;;;5115171;28;20551;-86
2021/07/02 12:42:48;;;;;;;32.10;29.80;;;;;;;;;;5114959;28;20572;-86
2021/07/02 12:45:17;;;;;;;31.83;29.43;;;;;;;;;;5114836;28;20462;-86
2021/07/02 12:47:45;;;;;;;33.33;30.80;;;;;;;;;;5115123;28;20441;-86
2021/07/02 12:50:13;;;;;;;33.10;30.50;;;;;;;;;;5114845;28;20434;-86
2021/07/02 12:55:27;;;;;;;33.23;30.80;;;;;;;;;;5114265;28;20418;-86
2021/07/02 12:57:55;;;;;;;33.97;31.40;;;;;;;;;;5114674;28;20764;-85
2021/07/02 13:00:27;;;;;;;30.33;28.13;;;;;;;;;;5097269;28;20497;-86
2021/07/02 13:02:56;;;;;;;32.97;30.47;;;;;;;;;;5114955;28;20456;-86
2021/07/02 13:05:34;;;;;;;31.60;29.40;;;;;;;;;;5114928;28;20434;-86
2021/07/02 13:08:02;;;;;;;30.50;28.50;;;;;;;;;;5114785;28;20428;-86
2021/07/02 13:10:44;;;;;;;32.60;29.80;;;;;;;;;;5114742;28;20751;-86
2021/07/02 13:13:12;;;;;;;31.20;28.90;;;;;;;;;;5114512;28;20902;-85
2021/07/02 13:15:56;;;;;;;30.83;28.73;;;;;;;;;;5114727;28;20405;-86
2021/07/02 13:18:24;;;;;;;32.27;29.97;;;;;;;;;;5114436;28;20786;-85
2021/07/02 13:20:52;;;;;;;33.17;30.53;;;;;;;;;;5113959;28;20464;-85
2021/07/02 13:23:21;;;;;;;33.07;30.50;;;;;;;;;;5114605;28;20898;-85
2021/07/02 13:26:03;;;;;;;32.00;29.70;;;;;;;;;;5114332;28;20428;-85
2021/07/02 13:28:31;;;;;;;33.20;30.50;;;;;;;;;;5114128;28;20889;-86
2021/07/02 13:30:58;;;;;;;33.23;30.70;;;;;;;;;;5114389;28;20419;-86
2021/07/02 13:33:26;;;;;;;33.83;31.40;;;;;;;;;;5114447;28;20453;-90
2021/07/02 13:35:53;;;;;;;35.13;32.00;;;;;;;;;;5114539;28;20916;-85
2021/07/02 13:38:21;;;;;;;35.60;32.67;;;;;;;;;;5114770;28;20420;-86
2021/07/02 13:40:49;;;;;;;34.30;31.50;;;;;;;;;;5114278;28;20401;-85
2021/07/02 13:43:19;;;;;;;33.50;31.00;;;;;;;;;;5096350;28;20943;-84
2021/07/02 13:46:00;;;;;;;35.00;32.30;;;;;;;;;;5113819;28;20484;-84
2021/07/02 13:48:27;;;;;;;35.33;32.80;;;;;;;;;;5113877;28;20800;-84
2021/07/02 13:50:55;;;;;;;34.37;31.73;;;;;;;;;;5114204;28;20442;-84
2021/07/02 13:53:23;;;;;;;36.20;33.20;;;;;;;;;;5113821;28;20771;-84
2021/07/02 13:55:51;;;;;;;33.07;30.60;;;;;;;;;;5113737;28;20445;-84
2021/07/02 13:58:20;;;;;;;35.23;32.57;;;;;;;;;;5114233;28;20404;-84
2021/07/02 14:00:48;;;;;;;32.87;30.30;;;;;;;;;;5114428;28;20451;-84
2021/07/02 14:03:16;;;;;;;34.43;31.63;;;;;;;;;;5113774;28;20478;-84
2021/07/02 14:05:44;;;;;;;34.73;32.03;;;;;;;;;;5113693;28;20420;-84
2021/07/02 14:08:12;;;;;;;36.47;33.73;;;;;;;;;;5116425;28;20465;-84
2021/07/02 14:10:40;;;;;;;35.03;32.00;;;;;;;;;;5117866;28;20441;-84
2021/07/02 14:13:07;;;;;;;35.03;32.37;;;;;;;;;;5117596;28;20416;-84
2021/07/02 14:15:36;;;;;;;33.53;31.03;;;;;;;;;;5099473;28;20559;-84
2021/07/02 14:18:04;;;;;;;33.00;30.70;;;;;;;;;;5117592;28;20413;-84
2021/07/02 14:20:31;;;;;;;34.63;31.90;;;;;;;;;;5117360;28;20491;-84
2021/07/02 14:22:59;;;;;;;33.93;31.10;;;;;;;;;;5117528;28;20461;-84
2021/07/02 14:25:27;;;;;;;36.13;33.23;;;;;;;;;;5117465;28;20555;-84
2021/07/02 14:27:54;;;;;;;35.53;32.73;;;;;;;;;;5117719;28;20457;-84
2021/07/02 14:30:22;;;;;;;35.50;32.60;;;;;;;;;;5117649;28;20834;-84
2021/07/02 14:32:51;;;;;;;36.60;33.70;;;;;;;;;;5117351;28;20443;-84
2021/07/02 14:35:20;;;;;;;38.40;35.37;;;;;;;;;;5117609;28;20455;-84